createdAt,value
2022-12-05T00:02:01.040Z,4.80
2022-12-05T00:04:31.634Z,4.80
2022-12-05T00:06:59.942Z,4.80
2022-12-05T00:09:27.182Z,4.90
2022-12-05T00:11:54.581Z,4.90
2022-12-05T00:14:21.939Z,4.80
2022-12-05T00:16:51.239Z,4.80
2022-12-05T00:19:18.574Z,4.90
2022-12-05T00:21:46.821Z,4.90
2022-12-05T00:24:16.860Z,4.90
2022-12-05T00:26:45.196Z,4.90
2022-12-05T00:29:13.209Z,4.80
2022-12-05T00:31:41.672Z,4.80
2022-12-05T00:34:09.057Z,4.90
2022-12-05T00:36:37.481Z,4.90
2022-12-05T00:39:10.291Z,4.90
2022-12-05T00:41:38.900Z,4.90
2022-12-05T00:44:07.161Z,4.90
2022-12-05T00:46:36.189Z,4.80
2022-12-05T00:49:06.767Z,4.80
2022-12-05T00:51:41.963Z,4.90
2022-12-05T00:54:16.210Z,4.90
2022-12-05T00:56:44.703Z,4.90
2022-12-05T00:59:19.983Z,4.90
2022-12-05T01:01:50.062Z,4.80
2022-12-05T01:04:25.491Z,4.90
2022-12-05T01:06:56.509Z,4.80
2022-12-05T01:09:25.514Z,4.80
2022-12-05T01:11:54.256Z,4.90
2022-12-05T01:14:24.762Z,4.80
2022-12-05T01:16:55.584Z,4.80
2022-12-05T01:19:32.122Z,4.80
2022-12-05T01:22:00.186Z,4.80
2022-12-05T01:24:28.695Z,4.80
2022-12-05T01:26:56.810Z,4.80
2022-12-05T01:29:25.836Z,4.80
2022-12-05T01:31:53.576Z,4.70
2022-12-05T01:34:21.520Z,4.70
2022-12-05T01:36:48.795Z,4.70
2022-12-05T01:39:17.356Z,4.70
2022-12-05T01:41:48.203Z,4.70
2022-12-05T01:44:16.473Z,4.60
2022-12-05T01:46:50.138Z,4.60
2022-12-05T01:49:37.837Z,4.60
2022-12-05T01:52:19.812Z,4.60
2022-12-05T01:54:54.822Z,4.60
2022-12-05T01:57:24.309Z,4.60
2022-12-05T02:00:00.617Z,4.60
2022-12-05T02:02:30.290Z,4.60
2022-12-05T02:05:03.604Z,4.60
2022-12-05T02:07:33.682Z,4.60
2022-12-05T02:10:01.195Z,4.60
2022-12-05T02:12:29.515Z,4.60
2022-12-05T02:15:24.712Z,4.60
2022-12-05T02:18:09.905Z,4.60
2022-12-05T02:21:03.261Z,4.60
2022-12-05T02:23:34.659Z,4.60
2022-12-05T02:26:23.376Z,4.60
2022-12-05T02:29:16.725Z,4.60
2022-12-05T02:32:10.544Z,4.60
2022-12-05T02:34:47.860Z,4.60
2022-12-05T02:37:28.584Z,4.60
2022-12-05T02:40:40.552Z,4.60
2022-12-05T02:43:31.377Z,4.60
2022-12-05T02:46:03.146Z,4.60
2022-12-05T02:48:31.560Z,4.60
2022-12-05T02:51:02.279Z,4.60
2022-12-05T02:53:31.485Z,4.60
2022-12-05T02:56:00.489Z,4.60
2022-12-05T02:58:58.327Z,4.60
2022-12-05T03:01:29.383Z,4.60
2022-12-05T03:04:00.607Z,4.60
2022-12-05T03:06:45.982Z,4.60
2022-12-05T03:09:23.844Z,4.60
2022-12-05T03:12:15.295Z,4.60
2022-12-05T03:15:11.074Z,4.60
2022-12-05T03:17:48.381Z,4.60
2022-12-05T03:20:25.445Z,4.70
2022-12-05T03:23:10.943Z,4.60
2022-12-05T03:26:05.553Z,4.60
2022-12-05T03:28:59.004Z,4.60
2022-12-05T03:31:53.464Z,4.60
2022-12-05T03:34:36.235Z,4.60
2022-12-05T03:37:08.946Z,4.60
2022-12-05T03:39:40.026Z,4.60
2022-12-05T03:42:28.036Z,4.60
2022-12-05T03:45:10.904Z,4.60
2022-12-05T03:47:40.992Z,4.50
2022-12-05T03:50:26.141Z,4.50
2022-12-05T03:53:20.872Z,4.50
2022-12-05T03:56:10.059Z,4.60
2022-12-05T03:59:02.956Z,4.50
2022-12-05T04:01:33.977Z,4.50
2022-12-05T04:04:13.097Z,4.50
2022-12-05T04:06:44.305Z,4.50
2022-12-05T04:09:19.924Z,4.50
2022-12-05T04:11:57.309Z,4.50
2022-12-05T04:14:45.260Z,4.50
2022-12-05T04:17:42.990Z,4.40
2022-12-05T04:20:33.596Z,4.40
2022-12-05T04:23:01.659Z,4.40
2022-12-05T04:25:37.330Z,4.40
2022-12-05T04:28:24.148Z,4.40
2022-12-05T04:31:16.700Z,4.40
2022-12-05T04:33:54.531Z,4.50
2022-12-05T04:36:39.876Z,4.40
2022-12-05T04:39:25.716Z,4.40
2022-12-05T04:42:00.664Z,4.40
2022-12-05T04:44:32.251Z,4.40
2022-12-05T04:47:03.266Z,4.40
2022-12-05T04:49:34.946Z,4.40
2022-12-05T04:52:09.874Z,4.40
2022-12-05T04:54:47.953Z,4.40
2022-12-05T04:57:35.846Z,4.40
2022-12-05T05:00:06.295Z,4.40
2022-12-05T05:02:41.052Z,4.40
2022-12-05T05:05:14.136Z,4.40
2022-12-05T05:07:49.188Z,4.40
2022-12-05T05:10:23.940Z,4.40
2022-12-05T05:12:51.370Z,4.40
2022-12-05T05:15:18.625Z,4.40
2022-12-05T05:17:45.904Z,4.40
2022-12-05T05:20:24.945Z,4.40
2022-12-05T05:22:57.671Z,4.40
2022-12-05T05:25:31.086Z,4.40
2022-12-05T05:27:59.400Z,4.40
2022-12-05T05:30:27.996Z,4.40
2022-12-05T05:33:02.360Z,4.40
2022-12-05T05:35:30.713Z,4.40
2022-12-05T05:37:58.863Z,4.40
2022-12-05T05:40:26.165Z,4.40
2022-12-05T05:42:54.518Z,4.40
2022-12-05T05:45:23.808Z,4.40
2022-12-05T05:47:52.244Z,4.40
2022-12-05T05:50:21.819Z,4.40
2022-12-05T05:52:49.897Z,4.40
2022-12-05T05:55:17.140Z,4.40
2022-12-05T05:57:44.444Z,4.40
2022-12-05T06:00:14.291Z,4.40
2022-12-05T06:02:43.635Z,4.40
2022-12-05T06:05:11.066Z,4.40
2022-12-05T06:07:43.387Z,4.40
2022-12-05T06:10:19.536Z,4.40
2022-12-05T06:12:48.361Z,4.40
2022-12-05T06:15:15.779Z,4.40
2022-12-05T06:17:43.159Z,4.40
2022-12-05T06:20:11.681Z,4.40
2022-12-05T06:22:39.145Z,4.30
2022-12-05T06:25:07.882Z,4.40
2022-12-05T06:27:38.275Z,4.30
2022-12-05T06:30:07.625Z,4.30
2022-12-05T06:32:36.836Z,4.30
2022-12-05T06:35:11.097Z,4.30
2022-12-05T06:37:38.885Z,4.30
2022-12-05T06:40:08.425Z,4.30
2022-12-05T06:42:35.689Z,4.30
2022-12-05T06:45:05.378Z,4.30
2022-12-05T06:47:32.706Z,4.30
2022-12-05T06:50:00.154Z,4.40
2022-12-05T06:52:28.480Z,4.40
2022-12-05T06:54:55.615Z,4.40
2022-12-05T06:57:22.860Z,4.40
2022-12-05T06:59:50.097Z,4.40
2022-12-05T07:02:18.416Z,4.40
2022-12-05T07:04:45.914Z,4.40
2022-12-05T07:07:15.212Z,4.40
2022-12-05T07:09:46.323Z,4.40
2022-12-05T07:12:17.439Z,4.40
2022-12-05T07:14:48.025Z,4.50
2022-12-05T07:17:20.279Z,4.50
2022-12-05T07:19:49.955Z,4.50
2022-12-05T07:22:18.752Z,4.50
2022-12-05T07:24:47.887Z,4.50
2022-12-05T07:27:17.055Z,4.50
2022-12-05T07:29:47.772Z,4.50
2022-12-05T07:32:16.109Z,4.50
2022-12-05T07:34:43.636Z,4.50
2022-12-05T07:37:10.844Z,4.50
2022-12-05T07:39:39.534Z,4.50
2022-12-05T07:42:07.795Z,4.50
2022-12-05T07:44:35.166Z,4.50
2022-12-05T07:47:02.381Z,4.50
2022-12-05T07:49:31.656Z,4.50
2022-12-05T07:52:00.855Z,4.50
2022-12-05T07:54:28.084Z,4.50
2022-12-05T07:56:55.319Z,4.50
2022-12-05T07:59:23.474Z,4.50
2022-12-05T08:01:51.934Z,4.50
2022-12-05T08:04:20.465Z,4.50
2022-12-05T08:06:47.783Z,4.50
2022-12-05T08:09:14.909Z,4.50
2022-12-05T08:11:42.176Z,4.50
2022-12-05T08:14:10.250Z,4.50
2022-12-05T08:16:37.997Z,4.50
2022-12-05T08:19:08.383Z,4.50
2022-12-05T08:21:36.267Z,4.50
2022-12-05T08:24:06.275Z,4.60
2022-12-05T08:26:34.899Z,4.60
2022-12-05T08:29:11.601Z,4.60
2022-12-05T08:31:47.395Z,4.60
2022-12-05T08:34:16.280Z,4.60
2022-12-05T08:36:43.595Z,4.60
2022-12-05T08:39:16.425Z,4.70
2022-12-05T08:41:45.192Z,4.60
2022-12-05T08:44:16.597Z,4.70
2022-12-05T08:46:50.558Z,4.70
2022-12-05T08:49:18.648Z,4.70
2022-12-05T08:51:46.074Z,4.70
2022-12-05T08:54:13.380Z,4.70
2022-12-05T08:56:40.638Z,4.70
2022-12-05T08:59:08.397Z,4.70
2022-12-05T09:01:38.937Z,4.70
2022-12-05T09:04:08.268Z,4.70
2022-12-05T09:06:39.881Z,4.70
2022-12-05T09:09:11.865Z,4.70
2022-12-05T09:11:46.966Z,4.70
2022-12-05T09:14:15.435Z,4.70
2022-12-05T09:16:46.102Z,4.70
2022-12-05T09:19:17.645Z,4.70
2022-12-05T09:21:47.953Z,4.70
2022-12-05T09:24:15.557Z,4.70
2022-12-05T09:26:44.223Z,4.60
2022-12-05T09:29:17.190Z,4.70
2022-12-05T09:31:47.440Z,4.70
2022-12-05T09:34:15.610Z,4.70
2022-12-05T09:36:43.225Z,4.70
2022-12-05T09:39:11.542Z,4.80
2022-12-05T09:42:08.309Z,4.80
2022-12-05T09:44:41.378Z,4.80
2022-12-05T09:47:19.315Z,4.90
2022-12-05T09:50:15.929Z,4.90
2022-12-05T09:53:28.022Z,4.90
2022-12-05T09:56:12.777Z,4.90
2022-12-05T09:58:46.265Z,4.90
2022-12-05T10:01:35.339Z,4.90
2022-12-05T10:04:12.564Z,4.80
2022-12-05T10:07:00.807Z,4.80
2022-12-05T10:09:51.583Z,4.90
2022-12-05T10:12:54.043Z,4.80
2022-12-05T10:15:45.494Z,4.80
2022-12-05T10:18:32.636Z,4.90
2022-12-05T10:21:10.649Z,4.80
2022-12-05T10:23:59.226Z,4.80
2022-12-05T10:26:51.591Z,4.90
2022-12-05T10:29:29.661Z,4.90
2022-12-05T10:32:13.095Z,4.80
2022-12-05T10:34:44.113Z,4.80
2022-12-05T10:37:17.059Z,4.80
2022-12-05T10:39:47.172Z,4.80
2022-12-05T10:42:27.159Z,4.80
2022-12-05T10:45:03.126Z,4.80
2022-12-05T10:47:32.589Z,4.80
2022-12-05T10:50:08.500Z,4.70
2022-12-05T10:52:36.618Z,4.80
2022-12-05T10:55:06.791Z,4.70
2022-12-05T10:57:34.050Z,4.70
2022-12-05T11:00:23.917Z,4.70
2022-12-05T11:02:52.736Z,4.80
2022-12-05T11:05:32.427Z,4.80
2022-12-05T11:08:00.896Z,4.70
2022-12-05T11:10:38.173Z,4.70
2022-12-05T11:13:24.822Z,4.60
2022-12-05T11:15:55.649Z,4.60
2022-12-05T11:18:33.555Z,4.70
2022-12-05T11:21:14.813Z,4.60
2022-12-05T11:23:42.080Z,4.70
2022-12-05T11:26:32.396Z,4.60
2022-12-05T11:29:04.734Z,4.70
2022-12-05T11:31:32.532Z,4.70
2022-12-05T11:34:29.706Z,4.70
2022-12-05T11:37:13.200Z,4.70
2022-12-05T11:39:41.109Z,4.70
2022-12-05T11:42:48.541Z,4.70
2022-12-05T11:45:33.913Z,4.70
2022-12-05T11:48:22.922Z,4.70
2022-12-05T11:50:53.004Z,4.70
2022-12-05T11:53:58.769Z,4.70
2022-12-05T11:56:35.482Z,4.70
2022-12-05T11:59:08.569Z,4.70
2022-12-05T12:02:13.598Z,4.70
2022-12-05T12:04:49.956Z,4.70
2022-12-05T12:07:47.687Z,4.60
2022-12-05T12:10:22.963Z,4.70
2022-12-05T12:13:14.120Z,4.70
2022-12-05T12:15:53.404Z,4.60
2022-12-05T12:18:47.155Z,4.60
2022-12-05T12:21:19.727Z,4.60
2022-12-05T12:24:11.504Z,4.70
2022-12-05T12:27:09.456Z,4.60
2022-12-05T12:30:04.105Z,4.70
2022-12-05T12:32:57.571Z,4.70
2022-12-05T12:35:31.854Z,4.70
2022-12-05T12:38:14.175Z,4.60
2022-12-05T12:40:55.500Z,4.60
2022-12-05T12:43:55.279Z,4.60
2022-12-05T12:46:30.348Z,4.50
2022-12-05T12:49:15.910Z,4.50
2022-12-05T12:52:19.076Z,4.50
2022-12-05T12:55:13.915Z,4.50
2022-12-05T12:58:03.120Z,4.40
2022-12-05T13:00:52.546Z,4.50
2022-12-05T13:03:38.640Z,4.50
2022-12-05T13:06:18.710Z,4.50
2022-12-05T13:09:06.439Z,4.40
2022-12-05T13:11:40.532Z,4.50
2022-12-05T13:14:18.131Z,4.50
2022-12-05T13:16:50.393Z,4.50
2022-12-05T13:19:42.101Z,4.50
2022-12-05T13:22:10.459Z,4.50
2022-12-05T13:24:39.041Z,4.50
2022-12-05T13:27:09.065Z,4.50
2022-12-05T13:29:43.141Z,4.40
2022-12-05T13:32:29.187Z,4.40
2022-12-05T13:35:16.386Z,4.40
2022-12-05T13:38:07.457Z,4.40
2022-12-05T13:41:08.866Z,4.40
2022-12-05T13:44:05.427Z,4.40
2022-12-05T13:46:38.968Z,4.40
2022-12-05T13:49:18.841Z,4.40
2022-12-05T13:51:47.416Z,4.50
2022-12-05T13:54:25.380Z,4.40
2022-12-05T13:57:02.277Z,4.50
2022-12-05T13:59:58.016Z,4.50
2022-12-05T14:02:44.930Z,4.40
2022-12-05T14:05:21.026Z,4.40
2022-12-05T14:08:03.390Z,4.50
2022-12-05T14:10:31.987Z,4.40
2022-12-05T14:13:02.694Z,4.50
2022-12-05T14:15:38.965Z,4.40
2022-12-05T14:18:11.344Z,4.50
2022-12-05T14:21:13.100Z,4.50
2022-12-05T14:24:15.260Z,4.50
2022-12-05T14:27:11.826Z,4.50
2022-12-05T14:29:57.408Z,4.50
2022-12-05T14:32:35.697Z,4.50
2022-12-05T14:35:32.116Z,4.50
2022-12-05T14:38:05.412Z,4.50
2022-12-05T14:40:42.414Z,4.50
2022-12-05T14:43:40.986Z,4.50
2022-12-05T14:46:25.532Z,4.50
2022-12-05T14:48:54.847Z,4.50
2022-12-05T14:51:31.185Z,4.50
2022-12-05T14:54:12.741Z,4.50
2022-12-05T14:56:52.861Z,4.50
2022-12-05T14:59:59.295Z,4.50
2022-12-05T15:02:36.127Z,4.50
2022-12-05T15:05:18.703Z,4.50
2022-12-05T15:07:49.076Z,4.50
2022-12-05T15:10:39.042Z,4.50
2022-12-05T15:13:18.778Z,4.50
2022-12-05T15:15:58.291Z,4.50
2022-12-05T15:18:32.050Z,4.40
2022-12-05T15:21:09.301Z,4.40
2022-12-05T15:23:59.713Z,4.40
2022-12-05T15:26:47.993Z,4.40
2022-12-05T15:29:35.245Z,4.40
2022-12-05T15:32:16.039Z,4.40
2022-12-05T15:35:05.535Z,4.40
2022-12-05T15:37:40.647Z,4.40
2022-12-05T15:40:09.111Z,4.40
2022-12-05T15:42:42.484Z,4.40
2022-12-05T15:45:13.990Z,4.40
2022-12-05T15:47:42.014Z,4.40
2022-12-05T15:50:17.935Z,4.40
2022-12-05T15:52:59.533Z,4.40
2022-12-05T15:55:40.039Z,4.40
2022-12-05T15:58:29.783Z,4.40
2022-12-05T16:01:01.184Z,4.40
2022-12-05T16:03:35.330Z,4.40
2022-12-05T16:06:10.466Z,4.40
2022-12-05T16:08:47.625Z,4.40
2022-12-05T16:11:17.039Z,4.40
2022-12-05T16:13:48.031Z,4.40
2022-12-05T16:16:38.200Z,4.40
2022-12-05T16:19:21.450Z,4.40
2022-12-05T16:22:17.185Z,4.40
2022-12-05T16:25:04.841Z,4.40
2022-12-05T16:27:36.887Z,4.20
2022-12-05T16:30:17.328Z,4.10
2022-12-05T16:32:47.911Z,4.00
2022-12-05T16:35:36.872Z,4.00
2022-12-05T16:38:19.978Z,4.00
2022-12-05T16:40:50.401Z,3.90
2022-12-05T16:43:42.373Z,3.90
2022-12-05T16:46:15.466Z,3.90
2022-12-05T16:49:16.829Z,3.90
2022-12-05T16:51:58.778Z,3.90
2022-12-05T16:54:26.128Z,3.80
2022-12-05T16:56:55.218Z,3.80
2022-12-05T16:59:43.185Z,3.80
2022-12-05T17:02:17.588Z,3.90
2022-12-05T17:04:49.384Z,3.90
2022-12-05T17:07:17.803Z,3.80
2022-12-05T17:09:46.061Z,3.80
2022-12-05T17:12:24.857Z,3.80
2022-12-05T17:14:52.373Z,3.80
2022-12-05T17:17:19.614Z,3.80
2022-12-05T17:19:47.914Z,3.90
2022-12-05T17:22:16.247Z,3.90
2022-12-05T17:24:44.637Z,3.90
2022-12-05T17:27:13.222Z,3.80
2022-12-05T17:29:41.467Z,3.80
2022-12-05T17:32:11.757Z,3.80
2022-12-05T17:34:39.050Z,3.80
2022-12-05T17:37:06.205Z,3.80
2022-12-05T17:39:33.495Z,3.80
2022-12-05T17:42:00.763Z,3.80
2022-12-05T17:44:28.099Z,3.80
2022-12-05T17:46:56.525Z,3.80
2022-12-05T17:49:24.603Z,3.80
2022-12-05T17:54:41.811Z,3.80
2022-12-05T17:57:10.953Z,3.80
2022-12-05T17:59:39.350Z,3.80
2022-12-05T18:02:07.078Z,3.80
2022-12-05T18:04:35.519Z,3.80
2022-12-05T18:07:02.965Z,3.80
2022-12-05T18:09:31.268Z,3.80
2022-12-05T18:11:58.647Z,3.80
2022-12-05T18:14:27.958Z,3.80
2022-12-05T18:16:58.378Z,3.80
2022-12-05T18:19:25.764Z,3.80
2022-12-05T18:21:53.367Z,3.80
2022-12-05T18:24:20.666Z,3.80
2022-12-05T18:26:47.952Z,3.80
2022-12-05T18:29:15.248Z,3.80
2022-12-05T18:31:43.520Z,3.90
2022-12-05T18:34:10.788Z,3.80
2022-12-05T18:36:38.174Z,3.80
2022-12-05T18:39:06.557Z,3.90
2022-12-05T18:41:33.927Z,3.80
2022-12-05T18:44:02.225Z,3.80
2022-12-05T18:46:31.548Z,3.80
2022-12-05T18:49:03.132Z,3.80
2022-12-05T18:51:32.386Z,3.80
2022-12-05T18:54:00.796Z,3.80
2022-12-05T18:56:35.251Z,3.80
2022-12-05T18:59:14.052Z,3.80
2022-12-05T19:01:42.394Z,3.80
2022-12-05T19:04:12.909Z,3.80
2022-12-05T19:06:43.427Z,3.80
2022-12-05T19:09:15.653Z,3.80
2022-12-05T19:11:57.157Z,3.80
2022-12-05T19:14:25.816Z,3.80
2022-12-05T19:16:59.952Z,3.80
2022-12-05T19:19:31.352Z,3.80
2022-12-05T19:21:59.443Z,3.80
2022-12-05T19:24:26.904Z,3.80
2022-12-05T19:26:54.253Z,3.80
2022-12-05T19:29:25.694Z,3.80
2022-12-05T19:31:54.161Z,3.80
2022-12-05T19:34:24.682Z,3.80
2022-12-05T19:36:51.926Z,3.80
2022-12-05T19:39:23.711Z,3.80
2022-12-05T19:41:51.727Z,3.80
2022-12-05T19:44:20.026Z,3.80
2022-12-05T19:46:55.175Z,3.80
2022-12-05T19:49:23.696Z,3.80
2022-12-05T19:51:52.761Z,3.80
2022-12-05T19:54:22.546Z,3.70
2022-12-05T19:56:50.856Z,3.80
2022-12-05T19:59:18.275Z,3.80
2022-12-05T20:01:47.683Z,3.80
2022-12-05T20:04:16.857Z,3.80
2022-12-05T20:06:50.431Z,3.80
2022-12-05T20:09:21.603Z,3.80
2022-12-05T20:11:54.980Z,3.80
2022-12-05T20:14:25.972Z,3.80
2022-12-05T20:16:54.559Z,3.80
2022-12-05T20:19:39.568Z,3.80
2022-12-05T20:22:07.724Z,3.80
2022-12-05T20:24:38.302Z,3.80
2022-12-05T20:27:07.927Z,3.80
2022-12-05T20:29:39.266Z,3.80
2022-12-05T20:32:07.699Z,3.80
2022-12-05T20:34:41.037Z,3.80
2022-12-05T20:37:08.884Z,3.80
2022-12-05T20:39:37.253Z,3.80
2022-12-05T20:42:11.155Z,3.80
2022-12-05T20:44:40.553Z,3.80
2022-12-05T20:47:07.803Z,3.80
2022-12-05T20:49:35.116Z,3.80
2022-12-05T20:52:03.507Z,3.80
2022-12-05T20:54:31.893Z,3.80
2022-12-05T20:57:07.988Z,3.80
2022-12-05T20:59:36.464Z,3.80
2022-12-05T21:02:04.863Z,3.80
2022-12-05T21:04:41.096Z,3.80
2022-12-05T21:07:09.419Z,3.80
2022-12-05T21:09:37.654Z,3.80
2022-12-05T21:12:06.098Z,3.80
2022-12-05T21:14:34.673Z,3.80
2022-12-05T21:17:02.056Z,3.70
2022-12-05T21:19:29.352Z,3.80
2022-12-05T21:21:57.876Z,3.70
2022-12-05T21:24:26.177Z,3.80
2022-12-05T21:26:54.474Z,3.80
2022-12-05T21:29:26.747Z,3.80
2022-12-05T21:31:55.071Z,3.80
2022-12-05T21:34:25.548Z,3.80
2022-12-05T21:36:52.796Z,3.80
2022-12-05T21:39:20.103Z,3.80
2022-12-05T21:41:48.315Z,3.80
2022-12-05T21:44:15.573Z,3.80
2022-12-05T21:46:42.897Z,3.80
2022-12-05T21:49:11.435Z,3.80
2022-12-05T21:51:40.476Z,3.80
2022-12-05T21:54:07.786Z,3.80
2022-12-05T21:56:36.102Z,3.70
2022-12-05T21:59:05.327Z,3.80
2022-12-05T22:01:33.329Z,3.80
2022-12-05T22:04:01.995Z,3.80
2022-12-05T22:06:34.387Z,3.80
2022-12-05T22:09:04.004Z,3.80
2022-12-05T22:11:31.308Z,3.80
2022-12-05T22:13:59.694Z,3.80
2022-12-05T22:16:33.083Z,3.80
2022-12-05T22:19:01.326Z,3.80
2022-12-05T22:21:29.597Z,3.80
2022-12-05T22:23:57.872Z,3.80
2022-12-05T22:26:27.135Z,3.80
2022-12-05T22:28:56.812Z,3.80
2022-12-05T22:31:31.474Z,3.90
2022-12-05T22:33:58.972Z,3.80
2022-12-05T22:36:31.354Z,3.80
2022-12-05T22:38:58.655Z,3.80
2022-12-05T22:41:26.872Z,3.90
2022-12-05T22:44:00.313Z,3.90
2022-12-05T22:46:32.799Z,3.80
2022-12-05T22:49:04.372Z,3.80
2022-12-05T22:51:42.771Z,3.80
2022-12-05T22:54:11.091Z,3.80
2022-12-05T22:56:41.563Z,3.80
2022-12-05T22:59:14.706Z,3.80
2022-12-05T23:01:42.292Z,3.80
2022-12-05T23:04:12.210Z,3.80
2022-12-05T23:06:46.276Z,3.80
2022-12-05T23:09:18.975Z,3.80
2022-12-05T23:11:50.953Z,3.80
2022-12-05T23:14:25.483Z,3.80
2022-12-05T23:16:52.941Z,3.90
2022-12-05T23:19:22.023Z,3.80
2022-12-05T23:21:49.491Z,3.80
2022-12-05T23:24:24.956Z,3.90
2022-12-05T23:26:52.255Z,3.80
2022-12-05T23:29:22.352Z,3.80
2022-12-05T23:31:49.602Z,3.80
2022-12-05T23:34:17.345Z,3.70
2022-12-05T23:36:45.858Z,3.60
2022-12-05T23:39:13.214Z,3.60
2022-12-05T23:41:42.174Z,3.60
2022-12-05T23:44:10.396Z,3.70
2022-12-05T23:46:38.699Z,3.60
2022-12-05T23:49:05.985Z,3.50
2022-12-05T23:51:34.461Z,3.50
2022-12-05T23:54:02.956Z,3.40
2022-12-05T23:56:32.988Z,3.30
2022-12-05T23:59:03.311Z,3.20
